Uvalde Research's Hourly Summary for Saturday, February 11, 2017
Hour Temp
(f)
RH
(%)
Solar Rad.
(MJ/m2)
Rainfall
(in)
Wind
(mph)
2/11/2017 12:00 AM 59 86 0 0 0
2/11/2017 1:00 AM 58 89 0 0 0.26
2/11/2017 2:00 AM 58 90 0 0 0.62
2/11/2017 3:00 AM 59 90 0 0 1.21
2/11/2017 4:00 AM 58 92 0 0 0.45
2/11/2017 5:00 AM 58 94 0 0 0.69
2/11/2017 6:00 AM 58 97 0 0 1.42
2/11/2017 7:00 AM 59 98 0 0 1.59
2/11/2017 8:00 AM 60 99 0.02 0 1.45
2/11/2017 9:00 AM 61 100 0.15 0 1.52
2/11/2017 10:00 AM 63 100 0.3 0 1.03
2/11/2017 11:00 AM 64 100 0.48 0 1.09
2/11/2017 12:00 PM 66 98 0.66 0 1.96
2/11/2017 1:00 PM 71 85 1.77 0 0.99
2/11/2017 2:00 PM 76 70 2.24 0 1.28
2/11/2017 3:00 PM 80 60 1.92 0 2.1
2/11/2017 4:00 PM 83 50 1.62 0 3.08
2/11/2017 5:00 PM 84 48 1.02 0 2.45
2/11/2017 6:00 PM 84 46 0.37 0 2.09
2/11/2017 7:00 PM 80 51 0.02 0 0.71
2/11/2017 8:00 PM 76 56 0 0 1.02
2/11/2017 9:00 PM 74 60 0 0 0.49
2/11/2017 10:00 PM 72 65 0 0 0.14
2/11/2017 11:00 PM 70 68 0 0 1.8
Data Summary 67 78 10.57 0.00 1.23